sensor_id;sensor_type;location;lat;lon;timestamp;temperature;humidity
34153;DHT22;20426;48.372;10.888;2023-08-31T00:00:20;14.50;99.90
34153;DHT22;20426;48.372;10.888;2023-08-31T00:00:51;14.40;99.90
34153;DHT22;20426;48.372;10.888;2023-08-31T00:01:22;14.40;99.90
34153;DHT22;20426;48.372;10.888;2023-08-31T00:01:52;14.40;99.90
34153;DHT22;20426;48.372;10.888;2023-08-31T00:02:23;14.40;99.90
34153;DHT22;20426;48.372;10.888;2023-08-31T00:02:54;14.50;99.90
34153;DHT22;20426;48.372;10.888;2023-08-31T00:03:25;14.50;99.90
34153;DHT22;20426;48.372;10.888;2023-08-31T00:03:56;14.50;99.90
34153;DHT22;20426;48.372;10.888;2023-08-31T00:04:26;14.50;99.90
34153;DHT22;20426;48.372;10.888;2023-08-31T00:04:57;14.50;99.90
34153;DHT22;20426;48.372;10.888;2023-08-31T00:05:29;14.50;99.90
34153;DHT22;20426;48.372;10.888;2023-08-31T00:06:03;14.50;99.90
34153;DHT22;20426;48.372;10.888;2023-08-31T00:06:34;14.50;99.90
34153;DHT22;20426;48.372;10.888;2023-08-31T00:07:05;14.50;99.90
34153;DHT22;20426;48.372;10.888;2023-08-31T00:07:37;14.50;99.90
34153;DHT22;20426;48.372;10.888;2023-08-31T00:08:08;14.50;99.90
34153;DHT22;20426;48.372;10.888;2023-08-31T00:08:39;14.50;99.90
34153;DHT22;20426;48.372;10.888;2023-08-31T00:09:13;14.50;99.90
34153;DHT22;20426;48.372;10.888;2023-08-31T00:09:43;14.50;99.90
34153;DHT22;20426;48.372;10.888;2023-08-31T00:10:14;14.50;99.90
34153;DHT22;20426;48.372;10.888;2023-08-31T00:10:55;14.50;99.90
34153;DHT22;20426;48.372;10.888;2023-08-31T00:11:26;14.50;99.90
34153;DHT22;20426;48.372;10.888;2023-08-31T00:11:56;14.50;99.90
34153;DHT22;20426;48.372;10.888;2023-08-31T00:12:27;14.50;99.90
34153;DHT22;20426;48.372;10.888;2023-08-31T00:12:58;14.50;99.90
34153;DHT22;20426;48.372;10.888;2023-08-31T00:13:28;14.50;99.90
34153;DHT22;20426;48.372;10.888;2023-08-31T00:13:59;14.50;99.90
34153;DHT22;20426;48.372;10.888;2023-08-31T00:14:30;14.40;99.90
34153;DHT22;20426;48.372;10.888;2023-08-31T00:15:01;14.40;99.90
34153;DHT22;20426;48.372;10.888;2023-08-31T00:15:32;14.40;99.90
34153;DHT22;20426;48.372;10.888;2023-08-31T00:16:05;14.40;99.90
34153;DHT22;20426;48.372;10.888;2023-08-31T00:16:36;14.40;99.90
34153;DHT22;20426;48.372;10.888;2023-08-31T00:17:07;14.40;99.90
34153;DHT22;20426;48.372;10.888;2023-08-31T00:17:38;14.40;99.90
34153;DHT22;20426;48.372;10.888;2023-08-31T00:18:08;14.40;99.90
34153;DHT22;20426;48.372;10.888;2023-08-31T00:18:40;14.40;99.90
34153;DHT22;20426;48.372;10.888;2023-08-31T00:19:12;14.40;99.90
34153;DHT22;20426;48.372;10.888;2023-08-31T00:19:44;14.30;99.90
34153;DHT22;20426;48.372;10.888;2023-08-31T00:20:15;14.30;99.90
34153;DHT22;20426;48.372;10.888;2023-08-31T00:20:45;14.30;99.90
34153;DHT22;20426;48.372;10.888;2023-08-31T00:21:16;14.30;99.90
34153;DHT22;20426;48.372;10.888;2023-08-31T00:21:47;14.30;99.90
34153;DHT22;20426;48.372;10.888;2023-08-31T00:22:19;14.30;99.90
34153;DHT22;20426;48.372;10.888;2023-08-31T00:22:49;14.30;99.90
34153;DHT22;20426;48.372;10.888;2023-08-31T00:23:20;14.30;99.90
34153;DHT22;20426;48.372;10.888;2023-08-31T00:23:51;14.30;99.90
34153;DHT22;20426;48.372;10.888;2023-08-31T00:24:21;14.40;99.90
34153;DHT22;20426;48.372;10.888;2023-08-31T00:24:58;14.30;99.90
34153;DHT22;20426;48.372;10.888;2023-08-31T00:25:29;14.30;99.90
34153;DHT22;20426;48.372;10.888;2023-08-31T00:26:00;14.30;99.90
34153;DHT22;20426;48.372;10.888;2023-08-31T00:26:30;14.30;99.90
34153;DHT22;20426;48.372;10.888;2023-08-31T00:27:01;14.30;99.90
34153;DHT22;20426;48.372;10.888;2023-08-31T00:27:34;14.30;99.90
34153;DHT22;20426;48.372;10.888;2023-08-31T00:28:07;14.30;99.90
34153;DHT22;20426;48.372;10.888;2023-08-31T00:28:39;14.30;99.90
34153;DHT22;20426;48.372;10.888;2023-08-31T00:29:12;14.30;99.90
34153;DHT22;20426;48.372;10.888;2023-08-31T00:29:46;14.30;99.90
34153;DHT22;20426;48.372;10.888;2023-08-31T00:30:21;14.20;99.90
34153;DHT22;20426;48.372;10.888;2023-08-31T00:30:51;14.30;99.90
34153;DHT22;20426;48.372;10.888;2023-08-31T00:31:22;14.30;99.90
34153;DHT22;20426;48.372;10.888;2023-08-31T00:31:53;14.30;99.90
34153;DHT22;20426;48.372;10.888;2023-08-31T00:32:24;14.30;99.90
34153;DHT22;20426;48.372;10.888;2023-08-31T00:32:55;14.30;99.90
34153;DHT22;20426;48.372;10.888;2023-08-31T00:33:26;14.30;99.90
34153;DHT22;20426;48.372;10.888;2023-08-31T00:33:57;14.30;99.90
34153;DHT22;20426;48.372;10.888;2023-08-31T00:34:27;14.30;99.90
34153;DHT22;20426;48.372;10.888;2023-08-31T00:34:58;14.30;99.90
34153;DHT22;20426;48.372;10.888;2023-08-31T00:35:29;14.30;99.90
34153;DHT22;20426;48.372;10.888;2023-08-31T00:36:00;14.30;99.90
34153;DHT22;20426;48.372;10.888;2023-08-31T00:36:34;14.30;99.90
34153;DHT22;20426;48.372;10.888;2023-08-31T00:37:04;14.30;99.90
34153;DHT22;20426;48.372;10.888;2023-08-31T00:37:35;14.30;99.90
34153;DHT22;20426;48.372;10.888;2023-08-31T00:38:06;14.30;99.90
34153;DHT22;20426;48.372;10.888;2023-08-31T00:38:36;14.30;99.90
34153;DHT22;20426;48.372;10.888;2023-08-31T00:39:07;14.30;99.90
34153;DHT22;20426;48.372;10.888;2023-08-31T00:39:41;14.30;99.90
34153;DHT22;20426;48.372;10.888;2023-08-31T00:40:11;14.30;99.90
34153;DHT22;20426;48.372;10.888;2023-08-31T00:40:44;14.30;99.90
34153;DHT22;20426;48.372;10.888;2023-08-31T00:41:15;14.30;99.90
34153;DHT22;20426;48.372;10.888;2023-08-31T00:41:47;14.30;99.90
34153;DHT22;20426;48.372;10.888;2023-08-31T00:42:18;14.40;99.90
34153;DHT22;20426;48.372;10.888;2023-08-31T00:42:49;14.40;99.90
34153;DHT22;20426;48.372;10.888;2023-08-31T00:43:19;14.40;99.90
34153;DHT22;20426;48.372;10.888;2023-08-31T00:43:50;14.40;99.90
34153;DHT22;20426;48.372;10.888;2023-08-31T00:44:21;14.40;99.90
34153;DHT22;20426;48.372;10.888;2023-08-31T00:44:52;14.40;99.90
34153;DHT22;20426;48.372;10.888;2023-08-31T00:45:23;14.40;99.90
34153;DHT22;20426;48.372;10.888;2023-08-31T00:45:55;14.40;99.90
34153;DHT22;20426;48.372;10.888;2023-08-31T00:46:28;14.40;99.90
34153;DHT22;20426;48.372;10.888;2023-08-31T00:47:00;14.40;99.90
34153;DHT22;20426;48.372;10.888;2023-08-31T00:47:32;14.40;99.90
34153;DHT22;20426;48.372;10.888;2023-08-31T00:48:04;14.40;99.90
34153;DHT22;20426;48.372;10.888;2023-08-31T00:48:35;14.40;99.90
34153;DHT22;20426;48.372;10.888;2023-08-31T00:49:06;14.40;99.90
34153;DHT22;20426;48.372;10.888;2023-08-31T00:49:37;14.40;99.90
34153;DHT22;20426;48.372;10.888;2023-08-31T00:50:08;14.40;99.90
34153;DHT22;20426;48.372;10.888;2023-08-31T00:50:39;14.40;99.90
34153;DHT22;20426;48.372;10.888;2023-08-31T00:51:09;14.40;99.90
34153;DHT22;20426;48.372;10.888;2023-08-31T00:51:42;14.40;99.90
34153;DHT22;20426;48.372;10.888;2023-08-31T00:52:19;14.40;99.90
34153;DHT22;20426;48.372;10.888;2023-08-31T00:52:50;14.40;99.90
34153;DHT22;20426;48.372;10.888;2023-08-31T00:53:21;14.40;99.90
34153;DHT22;20426;48.372;10.888;2023-08-31T00:53:52;14.40;99.90
34153;DHT22;20426;48.372;10.888;2023-08-31T00:54:25;14.40;99.90
34153;DHT22;20426;48.372;10.888;2023-08-31T00:54:57;14.40;99.90
34153;DHT22;20426;48.372;10.888;2023-08-31T00:55:28;14.40;99.90
34153;DHT22;20426;48.372;10.888;2023-08-31T00:55:59;14.40;99.90
34153;DHT22;20426;48.372;10.888;2023-08-31T00:56:29;14.40;99.90
34153;DHT22;20426;48.372;10.888;2023-08-31T00:57:00;14.40;99.90
34153;DHT22;20426;48.372;10.888;2023-08-31T00:57:31;14.40;99.90
34153;DHT22;20426;48.372;10.888;2023-08-31T00:58:01;14.40;99.90
34153;DHT22;20426;48.372;10.888;2023-08-31T00:58:32;14.40;99.90
34153;DHT22;20426;48.372;10.888;2023-08-31T00:59:03;14.40;99.90
34153;DHT22;20426;48.372;10.888;2023-08-31T00:59:34;14.40;99.90
34153;DHT22;20426;48.372;10.888;2023-08-31T01:00:05;14.40;99.90
34153;DHT22;20426;48.372;10.888;2023-08-31T01:01:41;14.40;99.90
34153;DHT22;20426;48.372;10.888;2023-08-31T01:02:28;14.50;99.90
34153;DHT22;20426;48.372;10.888;2023-08-31T01:03:13;14.50;99.90
34153;DHT22;20426;48.372;10.888;2023-08-31T01:03:57;14.50;99.90
34153;DHT22;20426;48.372;10.888;2023-08-31T01:04:47;14.50;99.90
34153;DHT22;20426;48.372;10.888;2023-08-31T01:08:19;14.50;99.90
34153;DHT22;20426;48.372;10.888;2023-08-31T01:09:36;14.50;99.90
34153;DHT22;20426;48.372;10.888;2023-08-31T01:10:29;14.50;99.90
34153;DHT22;20426;48.372;10.888;2023-08-31T01:11:29;14.50;99.90
34153;DHT22;20426;48.372;10.888;2023-08-31T01:12:18;14.50;99.90
34153;DHT22;20426;48.372;10.888;2023-08-31T01:12:53;14.50;99.90
34153;DHT22;20426;48.372;10.888;2023-08-31T01:13:25;14.50;99.90
34153;DHT22;20426;48.372;10.888;2023-08-31T01:14:12;14.50;99.90
34153;DHT22;20426;48.372;10.888;2023-08-31T01:14:50;14.50;99.90
34153;DHT22;20426;48.372;10.888;2023-08-31T01:15:21;14.50;99.90
34153;DHT22;20426;48.372;10.888;2023-08-31T01:15:56;14.50;99.90
34153;DHT22;20426;48.372;10.888;2023-08-31T01:16:33;14.50;99.90
34153;DHT22;20426;48.372;10.888;2023-08-31T01:17:06;14.50;99.90
34153;DHT22;20426;48.372;10.888;2023-08-31T01:17:40;14.50;99.90
34153;DHT22;20426;48.372;10.888;2023-08-31T01:18:16;14.50;99.90
34153;DHT22;20426;48.372;10.888;2023-08-31T01:18:47;14.50;99.90
34153;DHT22;20426;48.372;10.888;2023-08-31T01:19:43;14.50;99.90
34153;DHT22;20426;48.372;10.888;2023-08-31T01:20:19;14.60;99.90
34153;DHT22;20426;48.372;10.888;2023-08-31T01:21:20;14.60;99.90
34153;DHT22;20426;48.372;10.888;2023-08-31T01:21:59;14.60;99.90
34153;DHT22;20426;48.372;10.888;2023-08-31T01:22:38;14.60;99.90
34153;DHT22;20426;48.372;10.888;2023-08-31T01:23:15;14.60;99.90
34153;DHT22;20426;48.372;10.888;2023-08-31T01:23:53;14.60;99.90
34153;DHT22;20426;48.372;10.888;2023-08-31T01:24:24;14.60;99.90
34153;DHT22;20426;48.372;10.888;2023-08-31T01:24:55;14.60;99.90
34153;DHT22;20426;48.372;10.888;2023-08-31T01:25:26;14.60;99.90
34153;DHT22;20426;48.372;10.888;2023-08-31T01:25:58;14.60;99.90
34153;DHT22;20426;48.372;10.888;2023-08-31T01:26:28;14.60;99.90
34153;DHT22;20426;48.372;10.888;2023-08-31T01:26:59;14.60;99.90
34153;DHT22;20426;48.372;10.888;2023-08-31T01:27:33;14.60;99.90
34153;DHT22;20426;48.372;10.888;2023-08-31T01:28:05;14.60;99.90
34153;DHT22;20426;48.372;10.888;2023-08-31T01:28:37;14.60;99.90
34153;DHT22;20426;48.372;10.888;2023-08-31T01:29:08;14.70;99.90
34153;DHT22;20426;48.372;10.888;2023-08-31T01:29:39;14.70;99.90
34153;DHT22;20426;48.372;10.888;2023-08-31T01:30:10;14.60;99.90
34153;DHT22;20426;48.372;10.888;2023-08-31T01:30:41;14.70;99.90
34153;DHT22;20426;48.372;10.888;2023-08-31T01:31:12;14.70;99.90
34153;DHT22;20426;48.372;10.888;2023-08-31T01:31:43;14.70;99.90
34153;DHT22;20426;48.372;10.888;2023-08-31T01:32:15;14.70;99.90
34153;DHT22;20426;48.372;10.888;2023-08-31T01:32:47;14.70;99.90
34153;DHT22;20426;48.372;10.888;2023-08-31T01:33:18;14.70;99.90
34153;DHT22;20426;48.372;10.888;2023-08-31T01:33:48;14.70;99.90
34153;DHT22;20426;48.372;10.888;2023-08-31T01:34:19;14.70;99.90
34153;DHT22;20426;48.372;10.888;2023-08-31T01:34:51;14.70;99.90
34153;DHT22;20426;48.372;10.888;2023-08-31T01:35:26;14.70;99.90
34153;DHT22;20426;48.372;10.888;2023-08-31T01:35:58;14.70;99.90
34153;DHT22;20426;48.372;10.888;2023-08-31T01:36:30;14.80;99.90
34153;DHT22;20426;48.372;10.888;2023-08-31T01:37:12;14.80;99.90
34153;DHT22;20426;48.372;10.888;2023-08-31T01:37:58;14.80;99.90
34153;DHT22;20426;48.372;10.888;2023-08-31T01:38:30;14.80;99.90
34153;DHT22;20426;48.372;10.888;2023-08-31T01:39:49;14.80;99.90
34153;DHT22;20426;48.372;10.888;2023-08-31T01:40:44;14.80;99.90
34153;DHT22;20426;48.372;10.888;2023-08-31T01:41:18;14.80;99.90
34153;DHT22;20426;48.372;10.888;2023-08-31T01:41:55;14.80;99.90
34153;DHT22;20426;48.372;10.888;2023-08-31T01:42:28;14.80;99.90
34153;DHT22;20426;48.372;10.888;2023-08-31T01:43:01;14.80;99.90
34153;DHT22;20426;48.372;10.888;2023-08-31T01:43:34;14.80;99.90
34153;DHT22;20426;48.372;10.888;2023-08-31T01:44:06;14.80;99.90
34153;DHT22;20426;48.372;10.888;2023-08-31T01:44:39;14.80;99.90
34153;DHT22;20426;48.372;10.888;2023-08-31T01:45:11;14.80;99.90
34153;DHT22;20426;48.372;10.888;2023-08-31T01:45:44;14.80;99.90
34153;DHT22;20426;48.372;10.888;2023-08-31T01:46:16;14.80;99.90
34153;DHT22;20426;48.372;10.888;2023-08-31T01:46:52;14.80;99.90
34153;DHT22;20426;48.372;10.888;2023-08-31T01:47:24;14.80;99.90
34153;DHT22;20426;48.372;10.888;2023-08-31T01:47:56;14.80;99.90
34153;DHT22;20426;48.372;10.888;2023-08-31T01:48:28;14.80;99.90
34153;DHT22;20426;48.372;10.888;2023-08-31T01:48:58;14.80;99.90
34153;DHT22;20426;48.372;10.888;2023-08-31T01:49:38;14.80;99.90
34153;DHT22;20426;48.372;10.888;2023-08-31T01:50:09;14.90;99.90
34153;DHT22;20426;48.372;10.888;2023-08-31T01:50:40;14.80;99.90
34153;DHT22;20426;48.372;10.888;2023-08-31T01:51:11;14.80;99.90
34153;DHT22;20426;48.372;10.888;2023-08-31T01:51:42;14.80;99.90
34153;DHT22;20426;48.372;10.888;2023-08-31T01:52:13;14.80;99.90
34153;DHT22;20426;48.372;10.888;2023-08-31T01:52:44;14.80;99.90
34153;DHT22;20426;48.372;10.888;2023-08-31T01:53:14;14.80;99.90
34153;DHT22;20426;48.372;10.888;2023-08-31T01:53:45;14.80;99.90
34153;DHT22;20426;48.372;10.888;2023-08-31T01:54:16;14.80;99.90
34153;DHT22;20426;48.372;10.888;2023-08-31T01:54:47;14.80;99.90
34153;DHT22;20426;48.372;10.888;2023-08-31T01:55:17;14.80;99.90
34153;DHT22;20426;48.372;10.888;2023-08-31T01:55:48;14.90;99.90
34153;DHT22;20426;48.372;10.888;2023-08-31T01:56:19;14.80;99.90
34153;DHT22;20426;48.372;10.888;2023-08-31T01:56:52;14.80;99.90
34153;DHT22;20426;48.372;10.888;2023-08-31T01:57:22;14.80;99.90
34153;DHT22;20426;48.372;10.888;2023-08-31T01:57:53;14.80;99.90
34153;DHT22;20426;48.372;10.888;2023-08-31T01:58:23;14.80;99.90
34153;DHT22;20426;48.372;10.888;2023-08-31T01:58:54;14.80;99.90
34153;DHT22;20426;48.372;10.888;2023-08-31T01:59:25;14.80;99.90
34153;DHT22;20426;48.372;10.888;2023-08-31T01:59:57;14.80;99.90
34153;DHT22;20426;48.372;10.888;2023-08-31T02:00:27;14.80;99.90
34153;DHT22;20426;48.372;10.888;2023-08-31T02:00:58;14.80;99.90
34153;DHT22;20426;48.372;10.888;2023-08-31T02:01:32;14.70;99.90
34153;DHT22;20426;48.372;10.888;2023-08-31T02:02:03;14.80;99.90
34153;DHT22;20426;48.372;10.888;2023-08-31T02:02:34;14.80;99.90
34153;DHT22;20426;48.372;10.888;2023-08-31T02:03:05;14.70;99.90
34153;DHT22;20426;48.372;10.888;2023-08-31T02:03:36;14.70;99.90
34153;DHT22;20426;48.372;10.888;2023-08-31T02:04:07;14.80;99.90
34153;DHT22;20426;48.372;10.888;2023-08-31T02:04:37;14.80;99.90
34153;DHT22;20426;48.372;10.888;2023-08-31T02:05:09;14.80;99.90
34153;DHT22;20426;48.372;10.888;2023-08-31T02:05:40;14.80;99.90
34153;DHT22;20426;48.372;10.888;2023-08-31T02:06:11;14.80;99.90
34153;DHT22;20426;48.372;10.888;2023-08-31T02:06:41;14.80;99.90
34153;DHT22;20426;48.372;10.888;2023-08-31T02:07:12;14.80;99.90
34153;DHT22;20426;48.372;10.888;2023-08-31T02:07:43;14.80;99.90
34153;DHT22;20426;48.372;10.888;2023-08-31T02:08:13;14.80;99.90
34153;DHT22;20426;48.372;10.888;2023-08-31T02:08:48;14.80;99.90
34153;DHT22;20426;48.372;10.888;2023-08-31T02:09:19;14.80;99.90
34153;DHT22;20426;48.372;10.888;2023-08-31T02:09:50;14.80;99.90
34153;DHT22;20426;48.372;10.888;2023-08-31T02:10:21;14.70;99.90
34153;DHT22;20426;48.372;10.888;2023-08-31T02:10:51;14.70;99.90
34153;DHT22;20426;48.372;10.888;2023-08-31T02:11:24;14.70;99.90
34153;DHT22;20426;48.372;10.888;2023-08-31T02:11:55;14.70;99.90
34153;DHT22;20426;48.372;10.888;2023-08-31T02:12:26;14.70;99.90
34153;DHT22;20426;48.372;10.888;2023-08-31T02:12:56;14.70;99.90
34153;DHT22;20426;48.372;10.888;2023-08-31T02:13:27;14.70;99.90
34153;DHT22;20426;48.372;10.888;2023-08-31T02:13:58;14.70;99.90
34153;DHT22;20426;48.372;10.888;2023-08-31T02:14:29;14.70;99.90
34153;DHT22;20426;48.372;10.888;2023-08-31T02:15:00;14.70;99.90
34153;DHT22;20426;48.372;10.888;2023-08-31T02:15:31;14.70;99.90
34153;DHT22;20426;48.372;10.888;2023-08-31T02:16:02;14.60;99.90
34153;DHT22;20426;48.372;10.888;2023-08-31T02:16:33;14.60;99.90
34153;DHT22;20426;48.372;10.888;2023-08-31T02:17:04;14.60;99.90
34153;DHT22;20426;48.372;10.888;2023-08-31T02:17:35;14.60;99.90
34153;DHT22;20426;48.372;10.888;2023-08-31T02:18:07;14.60;99.90
34153;DHT22;20426;48.372;10.888;2023-08-31T02:18:38;14.60;99.90
34153;DHT22;20426;48.372;10.888;2023-08-31T02:19:09;14.60;99.90
34153;DHT22;20426;48.372;10.888;2023-08-31T02:19:39;14.60;99.90
34153;DHT22;20426;48.372;10.888;2023-08-31T02:20:10;14.60;99.90
34153;DHT22;20426;48.372;10.888;2023-08-31T02:20:41;14.70;99.90
34153;DHT22;20426;48.372;10.888;2023-08-31T02:21:12;14.70;99.90
34153;DHT22;20426;48.372;10.888;2023-08-31T02:21:43;14.70;99.90
34153;DHT22;20426;48.372;10.888;2023-08-31T02:22:13;14.70;99.90
34153;DHT22;20426;48.372;10.888;2023-08-31T02:22:44;14.60;99.90
34153;DHT22;20426;48.372;10.888;2023-08-31T02:23:14;14.70;99.90
34153;DHT22;20426;48.372;10.888;2023-08-31T02:23:45;14.70;99.90
34153;DHT22;20426;48.372;10.888;2023-08-31T02:24:16;14.70;99.90
34153;DHT22;20426;48.372;10.888;2023-08-31T02:24:46;14.70;99.90
34153;DHT22;20426;48.372;10.888;2023-08-31T02:25:17;14.70;99.90
34153;DHT22;20426;48.372;10.888;2023-08-31T02:25:48;14.70;99.90
34153;DHT22;20426;48.372;10.888;2023-08-31T02:26:20;14.70;99.90
34153;DHT22;20426;48.372;10.888;2023-08-31T02:26:52;14.70;99.90
34153;DHT22;20426;48.372;10.888;2023-08-31T02:27:22;14.70;99.90
34153;DHT22;20426;48.372;10.888;2023-08-31T02:27:53;14.70;99.90
34153;DHT22;20426;48.372;10.888;2023-08-31T02:28:24;14.70;99.90
34153;DHT22;20426;48.372;10.888;2023-08-31T02:28:55;14.70;99.90
34153;DHT22;20426;48.372;10.888;2023-08-31T02:29:25;14.70;99.90
34153;DHT22;20426;48.372;10.888;2023-08-31T02:29:56;14.60;99.90
34153;DHT22;20426;48.372;10.888;2023-08-31T02:30:27;14.60;99.90
34153;DHT22;20426;48.372;10.888;2023-08-31T02:31:02;14.70;99.90
34153;DHT22;20426;48.372;10.888;2023-08-31T02:31:33;14.70;99.90
34153;DHT22;20426;48.372;10.888;2023-08-31T02:32:05;14.60;99.90
34153;DHT22;20426;48.372;10.888;2023-08-31T02:32:35;14.60;99.90
34153;DHT22;20426;48.372;10.888;2023-08-31T02:33:06;14.60;99.90
34153;DHT22;20426;48.372;10.888;2023-08-31T02:33:37;14.60;99.90
34153;DHT22;20426;48.372;10.888;2023-08-31T02:34:08;14.60;99.90
34153;DHT22;20426;48.372;10.888;2023-08-31T02:34:38;14.60;99.90
34153;DHT22;20426;48.372;10.888;2023-08-31T02:35:09;14.60;99.90
34153;DHT22;20426;48.372;10.888;2023-08-31T02:35:40;14.60;99.90
34153;DHT22;20426;48.372;10.888;2023-08-31T02:36:11;14.60;99.90
34153;DHT22;20426;48.372;10.888;2023-08-31T02:36:41;14.50;99.90
34153;DHT22;20426;48.372;10.888;2023-08-31T02:37:12;14.50;99.90
34153;DHT22;20426;48.372;10.888;2023-08-31T02:37:43;14.50;99.90
34153;DHT22;20426;48.372;10.888;2023-08-31T02:38:13;14.50;99.90
34153;DHT22;20426;48.372;10.888;2023-08-31T02:38:44;14.50;99.90
34153;DHT22;20426;48.372;10.888;2023-08-31T02:39:16;14.50;99.90
34153;DHT22;20426;48.372;10.888;2023-08-31T02:39:47;14.50;99.90
34153;DHT22;20426;48.372;10.888;2023-08-31T02:40:18;14.50;99.90
34153;DHT22;20426;48.372;10.888;2023-08-31T02:40:49;14.50;99.90
34153;DHT22;20426;48.372;10.888;2023-08-31T02:41:20;14.50;99.90
34153;DHT22;20426;48.372;10.888;2023-08-31T02:41:50;14.50;99.90
34153;DHT22;20426;48.372;10.888;2023-08-31T02:42:21;14.50;99.90
34153;DHT22;20426;48.372;10.888;2023-08-31T02:42:52;14.50;99.90
34153;DHT22;20426;48.372;10.888;2023-08-31T02:43:23;14.50;99.90
34153;DHT22;20426;48.372;10.888;2023-08-31T02:43:55;14.50;99.90
34153;DHT22;20426;48.372;10.888;2023-08-31T02:44:26;14.50;99.90
34153;DHT22;20426;48.372;10.888;2023-08-31T02:44:56;14.50;99.90
34153;DHT22;20426;48.372;10.888;2023-08-31T02:45:27;14.50;99.90
34153;DHT22;20426;48.372;10.888;2023-08-31T02:46:01;14.50;99.90
34153;DHT22;20426;48.372;10.888;2023-08-31T02:46:32;14.50;99.90
34153;DHT22;20426;48.372;10.888;2023-08-31T02:47:03;14.50;99.90
34153;DHT22;20426;48.372;10.888;2023-08-31T02:47:34;14.50;99.90
34153;DHT22;20426;48.372;10.888;2023-08-31T02:48:06;14.50;99.90
34153;DHT22;20426;48.372;10.888;2023-08-31T02:48:38;14.50;99.90
34153;DHT22;20426;48.372;10.888;2023-08-31T02:49:09;14.50;99.90
34153;DHT22;20426;48.372;10.888;2023-08-31T02:49:39;14.50;99.90
34153;DHT22;20426;48.372;10.888;2023-08-31T02:50:10;14.50;99.90
34153;DHT22;20426;48.372;10.888;2023-08-31T02:50:41;14.50;99.90
34153;DHT22;20426;48.372;10.888;2023-08-31T02:51:11;14.50;99.90
34153;DHT22;20426;48.372;10.888;2023-08-31T02:51:42;14.50;99.90
34153;DHT22;20426;48.372;10.888;2023-08-31T02:52:13;14.50;99.90
34153;DHT22;20426;48.372;10.888;2023-08-31T02:52:43;14.40;99.90
34153;DHT22;20426;48.372;10.888;2023-08-31T02:53:14;14.40;99.90
34153;DHT22;20426;48.372;10.888;2023-08-31T02:53:45;14.40;99.90
34153;DHT22;20426;48.372;10.888;2023-08-31T02:54:16;14.40;99.90
34153;DHT22;20426;48.372;10.888;2023-08-31T02:54:46;14.40;99.90
34153;DHT22;20426;48.372;10.888;2023-08-31T02:55:17;14.40;99.90
34153;DHT22;20426;48.372;10.888;2023-08-31T02:55:47;14.40;99.90
34153;DHT22;20426;48.372;10.888;2023-08-31T02:56:21;14.40;99.90
34153;DHT22;20426;48.372;10.888;2023-08-31T02:56:51;14.40;99.90
34153;DHT22;20426;48.372;10.888;2023-08-31T02:57:22;14.40;99.90
34153;DHT22;20426;48.372;10.888;2023-08-31T02:57:54;14.40;99.90
34153;DHT22;20426;48.372;10.888;2023-08-31T02:58:24;14.40;99.90
34153;DHT22;20426;48.372;10.888;2023-08-31T02:58:55;14.40;99.90
34153;DHT22;20426;48.372;10.888;2023-08-31T02:59:26;14.40;99.90
34153;DHT22;20426;48.372;10.888;2023-08-31T02:59:56;14.40;99.90
34153;DHT22;20426;48.372;10.888;2023-08-31T03:00:27;14.40;99.90
34153;DHT22;20426;48.372;10.888;2023-08-31T03:01:11;14.40;99.90
34153;DHT22;20426;48.372;10.888;2023-08-31T03:01:42;14.40;99.90
34153;DHT22;20426;48.372;10.888;2023-08-31T03:02:16;14.40;99.90
34153;DHT22;20426;48.372;10.888;2023-08-31T03:02:48;14.40;99.90
34153;DHT22;20426;48.372;10.888;2023-08-31T03:03:19;14.40;99.90
34153;DHT22;20426;48.372;10.888;2023-08-31T03:03:49;14.40;99.90
34153;DHT22;20426;48.372;10.888;2023-08-31T03:04:20;14.40;99.90
34153;DHT22;20426;48.372;10.888;2023-08-31T03:04:51;14.40;99.90
34153;DHT22;20426;48.372;10.888;2023-08-31T03:05:22;14.40;99.90
34153;DHT22;20426;48.372;10.888;2023-08-31T03:05:55;14.40;99.90
34153;DHT22;20426;48.372;10.888;2023-08-31T03:06:26;14.50;99.90
34153;DHT22;20426;48.372;10.888;2023-08-31T03:06:57;14.50;99.90
34153;DHT22;20426;48.372;10.888;2023-08-31T03:07:28;14.50;99.90
34153;DHT22;20426;48.372;10.888;2023-08-31T03:07:58;14.50;99.90
34153;DHT22;20426;48.372;10.888;2023-08-31T03:08:29;14.40;99.90
34153;DHT22;20426;48.372;10.888;2023-08-31T03:09:00;14.40;99.90
34153;DHT22;20426;48.372;10.888;2023-08-31T03:09:32;14.50;99.90
34153;DHT22;20426;48.372;10.888;2023-08-31T03:10:03;14.50;99.90
34153;DHT22;20426;48.372;10.888;2023-08-31T03:10:34;14.50;99.90
34153;DHT22;20426;48.372;10.888;2023-08-31T03:11:05;14.50;99.90
34153;DHT22;20426;48.372;10.888;2023-08-31T03:11:36;14.50;99.90
34153;DHT22;20426;48.372;10.888;2023-08-31T03:12:07;14.40;99.90
34153;DHT22;20426;48.372;10.888;2023-08-31T03:12:38;14.50;99.90
34153;DHT22;20426;48.372;10.888;2023-08-31T03:13:08;14.50;99.90
34153;DHT22;20426;48.372;10.888;2023-08-31T03:13:39;14.50;99.90
34153;DHT22;20426;48.372;10.888;2023-08-31T03:14:10;14.50;99.90
34153;DHT22;20426;48.372;10.888;2023-08-31T03:14:40;14.50;99.90
34153;DHT22;20426;48.372;10.888;2023-08-31T03:15:11;14.50;99.90
34153;DHT22;20426;48.372;10.888;2023-08-31T03:15:41;14.50;99.90
34153;DHT22;20426;48.372;10.888;2023-08-31T03:16:12;14.40;99.90
34153;DHT22;20426;48.372;10.888;2023-08-31T03:16:43;14.50;99.90
34153;DHT22;20426;48.372;10.888;2023-08-31T03:17:13;14.40;99.90
34153;DHT22;20426;48.372;10.888;2023-08-31T03:17:44;14.40;99.90
34153;DHT22;20426;48.372;10.888;2023-08-31T03:18:15;14.50;99.90
34153;DHT22;20426;48.372;10.888;2023-08-31T03:18:45;14.50;99.90
34153;DHT22;20426;48.372;10.888;2023-08-31T03:19:16;14.50;99.90
34153;DHT22;20426;48.372;10.888;2023-08-31T03:19:46;14.50;99.90
34153;DHT22;20426;48.372;10.888;2023-08-31T03:20:17;14.50;99.90
34153;DHT22;20426;48.372;10.888;2023-08-31T03:20:48;14.40;99.90
34153;DHT22;20426;48.372;10.888;2023-08-31T03:21:18;14.40;99.90
34153;DHT22;20426;48.372;10.888;2023-08-31T03:21:50;14.40;99.90
34153;DHT22;20426;48.372;10.888;2023-08-31T03:22:21;14.50;99.90
34153;DHT22;20426;48.372;10.888;2023-08-31T03:22:51;14.50;99.90
34153;DHT22;20426;48.372;10.888;2023-08-31T03:23:22;14.50;99.90
34153;DHT22;20426;48.372;10.888;2023-08-31T03:23:53;14.50;99.90
34153;DHT22;20426;48.372;10.888;2023-08-31T03:24:23;14.40;99.90
34153;DHT22;20426;48.372;10.888;2023-08-31T03:24:54;14.40;99.90
34153;DHT22;20426;48.372;10.888;2023-08-31T03:25:24;14.40;99.90